sensor_id;sensor_type;location;lat;lon;timestamp;temperature;humidity
70550;DHT22;58101;48.658;2.328;2023-05-07T00:07:08;15.50;99.90
70550;DHT22;58101;48.658;2.328;2023-05-07T00:10:11;15.40;99.90
70550;DHT22;58101;48.658;2.328;2023-05-07T00:20:30;15.50;99.90
70550;DHT22;58101;48.658;2.328;2023-05-07T00:22:56;15.50;99.90
70550;DHT22;58101;48.658;2.328;2023-05-07T00:25:32;15.50;99.90
70550;DHT22;58101;48.658;2.328;2023-05-07T00:28:01;15.50;99.90
70550;DHT22;58101;48.658;2.328;2023-05-07T00:34:19;15.60;99.90
70550;DHT22;58101;48.658;2.328;2023-05-07T00:39:33;15.60;99.90
70550;DHT22;58101;48.658;2.328;2023-05-07T00:41:59;15.50;99.90
70550;DHT22;58101;48.658;2.328;2023-05-07T00:52:58;15.50;99.90
70550;DHT22;58101;48.658;2.328;2023-05-07T00:55:44;15.50;99.90
70550;DHT22;58101;48.658;2.328;2023-05-07T00:58:31;15.50;99.90
70550;DHT22;58101;48.658;2.328;2023-05-07T01:01:02;15.50;99.90
70550;DHT22;58101;48.658;2.328;2023-05-07T01:03:31;15.50;99.90
70550;DHT22;58101;48.658;2.328;2023-05-07T01:05:57;15.50;99.90
70550;DHT22;58101;48.658;2.328;2023-05-07T01:08:45;15.50;99.90
70550;DHT22;58101;48.658;2.328;2023-05-07T01:11:14;15.50;99.90
70550;DHT22;58101;48.658;2.328;2023-05-07T01:16:56;15.50;99.90
70550;DHT22;58101;48.658;2.328;2023-05-07T01:19:22;15.50;99.90
70550;DHT22;58101;48.658;2.328;2023-05-07T01:21:48;15.50;99.90
70550;DHT22;58101;48.658;2.328;2023-05-07T01:24:14;15.50;99.90
70550;DHT22;58101;48.658;2.328;2023-05-07T01:26:56;15.50;99.90
70550;DHT22;58101;48.658;2.328;2023-05-07T01:29:22;15.50;99.90
70550;DHT22;58101;48.658;2.328;2023-05-07T01:32:00;15.50;99.90
70550;DHT22;58101;48.658;2.328;2023-05-07T01:37:17;15.50;99.90
70550;DHT22;58101;48.658;2.328;2023-05-07T01:39:45;15.50;99.90
70550;DHT22;58101;48.658;2.328;2023-05-07T01:42:12;15.50;99.90
70550;DHT22;58101;48.658;2.328;2023-05-07T01:45:03;15.50;99.90
70550;DHT22;58101;48.658;2.328;2023-05-07T01:47:42;15.50;99.90
70550;DHT22;58101;48.658;2.328;2023-05-07T01:50:31;15.50;99.90
70550;DHT22;58101;48.658;2.328;2023-05-07T01:53:03;15.50;99.90
70550;DHT22;58101;48.658;2.328;2023-05-07T01:55:31;15.50;99.90
70550;DHT22;58101;48.658;2.328;2023-05-07T01:58:00;15.50;99.90
70550;DHT22;58101;48.658;2.328;2023-05-07T02:00:54;15.50;99.90
70550;DHT22;58101;48.658;2.328;2023-05-07T02:03:35;15.50;99.90
70550;DHT22;58101;48.658;2.328;2023-05-07T02:06:24;15.50;99.90
70550;DHT22;58101;48.658;2.328;2023-05-07T02:09:02;15.40;99.90
70550;DHT22;58101;48.658;2.328;2023-05-07T02:18:12;15.40;99.90
70550;DHT22;58101;48.658;2.328;2023-05-07T02:21:04;15.40;99.90
70550;DHT22;58101;48.658;2.328;2023-05-07T02:23:29;15.40;99.90
70550;DHT22;58101;48.658;2.328;2023-05-07T02:26:31;15.40;99.90
70550;DHT22;58101;48.658;2.328;2023-05-07T02:28:57;15.40;99.90
70550;DHT22;58101;48.658;2.328;2023-05-07T02:37:29;15.30;99.90
70550;DHT22;58101;48.658;2.328;2023-05-07T02:40:11;15.30;99.90
70550;DHT22;58101;48.658;2.328;2023-05-07T02:46:22;15.20;99.90
70550;DHT22;58101;48.658;2.328;2023-05-07T02:49:26;15.20;99.90
70550;DHT22;58101;48.658;2.328;2023-05-07T02:53:01;15.20;99.90
70550;DHT22;58101;48.658;2.328;2023-05-07T03:04:29;15.10;99.90
70550;DHT22;58101;48.658;2.328;2023-05-07T03:07:51;15.00;99.90
70550;DHT22;58101;48.658;2.328;2023-05-07T03:17:45;15.10;99.90
70550;DHT22;58101;48.658;2.328;2023-05-07T03:23:26;15.20;99.90
70550;DHT22;58101;48.658;2.328;2023-05-07T03:26:27;15.20;99.90
70550;DHT22;58101;48.658;2.328;2023-05-07T03:29:27;15.20;99.90
70550;DHT22;58101;48.658;2.328;2023-05-07T03:44:42;15.20;99.90
70550;DHT22;58101;48.658;2.328;2023-05-07T03:47:58;15.10;99.90
70550;DHT22;58101;48.658;2.328;2023-05-07T03:50:53;15.10;99.90
70550;DHT22;58101;48.658;2.328;2023-05-07T03:53:43;15.20;99.90
70550;DHT22;58101;48.658;2.328;2023-05-07T03:56:23;15.10;99.90
70550;DHT22;58101;48.658;2.328;2023-05-07T04:08:54;15.20;99.90
70550;DHT22;58101;48.658;2.328;2023-05-07T04:11:20;15.20;99.90
70550;DHT22;58101;48.658;2.328;2023-05-07T04:14:12;15.10;99.90
70550;DHT22;58101;48.658;2.328;2023-05-07T04:16:59;15.10;99.90
70550;DHT22;58101;48.658;2.328;2023-05-07T04:33:19;15.00;99.90
70550;DHT22;58101;48.658;2.328;2023-05-07T04:35:29;15.10;99.90
70550;DHT22;58101;48.658;2.328;2023-05-07T04:38:32;15.10;99.90
70550;DHT22;58101;48.658;2.328;2023-05-07T04:41:19;15.00;99.90
70550;DHT22;58101;48.658;2.328;2023-05-07T04:44:07;15.00;99.90
70550;DHT22;58101;48.658;2.328;2023-05-07T04:46:34;14.90;99.90
70550;DHT22;58101;48.658;2.328;2023-05-07T04:49:30;14.90;99.90
70550;DHT22;58101;48.658;2.328;2023-05-07T04:55:11;15.00;99.90
70550;DHT22;58101;48.658;2.328;2023-05-07T04:58:04;15.00;99.90
70550;DHT22;58101;48.658;2.328;2023-05-07T05:46:28;14.80;99.90
70550;DHT22;58101;48.658;2.328;2023-05-07T05:49:32;14.90;99.90
70550;DHT22;58101;48.658;2.328;2023-05-07T05:52:09;14.90;99.90
70550;DHT22;58101;48.658;2.328;2023-05-07T05:55:03;14.90;99.90
70550;DHT22;58101;48.658;2.328;2023-05-07T05:57:31;14.70;99.90
70550;DHT22;58101;48.658;2.328;2023-05-07T06:00:18;14.90;99.90
70550;DHT22;58101;48.658;2.328;2023-05-07T06:09:47;14.90;99.90
70550;DHT22;58101;48.658;2.328;2023-05-07T06:12:36;15.00;99.90
70550;DHT22;58101;48.658;2.328;2023-05-07T06:16:03;15.00;99.90
70550;DHT22;58101;48.658;2.328;2023-05-07T06:21:49;15.10;99.90
70550;DHT22;58101;48.658;2.328;2023-05-07T06:24:14;15.10;99.90
70550;DHT22;58101;48.658;2.328;2023-05-07T06:30:13;15.20;99.90
70550;DHT22;58101;48.658;2.328;2023-05-07T06:42:03;15.40;99.90
70550;DHT22;58101;48.658;2.328;2023-05-07T06:52:52;15.40;99.90
70550;DHT22;58101;48.658;2.328;2023-05-07T06:55:18;15.40;99.90
70550;DHT22;58101;48.658;2.328;2023-05-07T06:57:47;15.50;99.90
70550;DHT22;58101;48.658;2.328;2023-05-07T07:00:16;15.50;99.90
70550;DHT22;58101;48.658;2.328;2023-05-07T07:06:27;15.50;99.90
70550;DHT22;58101;48.658;2.328;2023-05-07T07:08:59;15.60;99.90
70550;DHT22;58101;48.658;2.328;2023-05-07T07:11:37;15.60;99.90
70550;DHT22;58101;48.658;2.328;2023-05-07T07:14:05;15.50;99.90
70550;DHT22;58101;48.658;2.328;2023-05-07T07:16:31;15.50;99.90
70550;DHT22;58101;48.658;2.328;2023-05-07T07:19:02;15.60;99.90
70550;DHT22;58101;48.658;2.328;2023-05-07T07:25:13;15.50;99.90
70550;DHT22;58101;48.658;2.328;2023-05-07T07:27:39;15.70;99.90
70550;DHT22;58101;48.658;2.328;2023-05-07T07:30:06;15.60;99.90
70550;DHT22;58101;48.658;2.328;2023-05-07T07:32:31;15.60;99.90
70550;DHT22;58101;48.658;2.328;2023-05-07T07:34:58;15.60;99.90
70550;DHT22;58101;48.658;2.328;2023-05-07T07:37:29;15.60;99.90
70550;DHT22;58101;48.658;2.328;2023-05-07T07:40:02;15.60;99.90
70550;DHT22;58101;48.658;2.328;2023-05-07T07:42:30;15.50;99.90
70550;DHT22;58101;48.658;2.328;2023-05-07T07:44:55;15.60;99.90
70550;DHT22;58101;48.658;2.328;2023-05-07T07:47:22;15.60;99.90
70550;DHT22;58101;48.658;2.328;2023-05-07T07:49:51;15.70;99.90
70550;DHT22;58101;48.658;2.328;2023-05-07T07:52:16;15.70;99.90
70550;DHT22;58101;48.658;2.328;2023-05-07T07:54:42;15.80;99.90
70550;DHT22;58101;48.658;2.328;2023-05-07T07:57:08;15.80;99.90
70550;DHT22;58101;48.658;2.328;2023-05-07T07:59:34;15.90;99.90
70550;DHT22;58101;48.658;2.328;2023-05-07T08:02:07;16.00;99.90
70550;DHT22;58101;48.658;2.328;2023-05-07T08:04:33;16.00;99.90
70550;DHT22;58101;48.658;2.328;2023-05-07T08:06:58;16.00;99.90
70550;DHT22;58101;48.658;2.328;2023-05-07T08:09:24;16.00;99.90
70550;DHT22;58101;48.658;2.328;2023-05-07T08:11:53;16.00;99.90
70550;DHT22;58101;48.658;2.328;2023-05-07T08:14:21;16.10;99.90
70550;DHT22;58101;48.658;2.328;2023-05-07T08:16:47;16.10;99.90
70550;DHT22;58101;48.658;2.328;2023-05-07T08:19:13;16.20;99.90
70550;DHT22;58101;48.658;2.328;2023-05-07T08:21:39;16.10;99.90
70550;DHT22;58101;48.658;2.328;2023-05-07T08:24:06;16.20;99.90
70550;DHT22;58101;48.658;2.328;2023-05-07T08:26:39;16.30;99.90
70550;DHT22;58101;48.658;2.328;2023-05-07T08:29:05;16.40;99.90
70550;DHT22;58101;48.658;2.328;2023-05-07T08:31:33;16.40;99.90
70550;DHT22;58101;48.658;2.328;2023-05-07T08:33:59;16.40;99.90
70550;DHT22;58101;48.658;2.328;2023-05-07T08:36:25;16.50;99.90
70550;DHT22;58101;48.658;2.328;2023-05-07T08:38:54;16.50;99.90
70550;DHT22;58101;48.658;2.328;2023-05-07T08:41:20;16.60;99.90
70550;DHT22;58101;48.658;2.328;2023-05-07T08:43:49;16.50;99.90
70550;DHT22;58101;48.658;2.328;2023-05-07T08:46:21;16.50;99.90
70550;DHT22;58101;48.658;2.328;2023-05-07T08:48:51;16.60;99.90
70550;DHT22;58101;48.658;2.328;2023-05-07T08:51:20;16.70;99.90
70550;DHT22;58101;48.658;2.328;2023-05-07T08:53:48;16.80;99.90
70550;DHT22;58101;48.658;2.328;2023-05-07T08:56:16;17.00;99.90
70550;DHT22;58101;48.658;2.328;2023-05-07T08:58:44;17.10;99.90
70550;DHT22;58101;48.658;2.328;2023-05-07T09:01:14;17.10;99.90
70550;DHT22;58101;48.658;2.328;2023-05-07T09:03:53;17.20;99.90
70550;DHT22;58101;48.658;2.328;2023-05-07T09:06:18;17.20;99.90
70550;DHT22;58101;48.658;2.328;2023-05-07T09:08:51;17.20;99.90
70550;DHT22;58101;48.658;2.328;2023-05-07T09:11:20;17.20;99.90
70550;DHT22;58101;48.658;2.328;2023-05-07T09:13:46;17.20;99.90
70550;DHT22;58101;48.658;2.328;2023-05-07T09:16:13;17.30;99.90
70550;DHT22;58101;48.658;2.328;2023-05-07T09:18:45;17.50;99.90
70550;DHT22;58101;48.658;2.328;2023-05-07T09:21:15;17.60;99.90
70550;DHT22;58101;48.658;2.328;2023-05-07T09:23:41;17.80;99.90
70550;DHT22;58101;48.658;2.328;2023-05-07T09:26:07;18.10;99.90
70550;DHT22;58101;48.658;2.328;2023-05-07T09:28:39;18.20;99.90
70550;DHT22;58101;48.658;2.328;2023-05-07T09:31:05;18.30;99.90
70550;DHT22;58101;48.658;2.328;2023-05-07T09:33:34;18.30;99.90
70550;DHT22;58101;48.658;2.328;2023-05-07T09:36:08;18.30;99.90
70550;DHT22;58101;48.658;2.328;2023-05-07T09:38:38;18.30;99.90
70550;DHT22;58101;48.658;2.328;2023-05-07T09:43:33;18.10;99.90
70550;DHT22;58101;48.658;2.328;2023-05-07T09:46:12;18.10;99.90
70550;DHT22;58101;48.658;2.328;2023-05-07T09:48:39;18.20;99.90
70550;DHT22;58101;48.658;2.328;2023-05-07T09:54:59;18.10;99.90
70550;DHT22;58101;48.658;2.328;2023-05-07T09:57:26;18.20;99.90
70550;DHT22;58101;48.658;2.328;2023-05-07T09:59:54;18.20;99.90
70550;DHT22;58101;48.658;2.328;2023-05-07T10:02:21;18.20;99.90
70550;DHT22;58101;48.658;2.328;2023-05-07T10:04:49;18.20;99.90
70550;DHT22;58101;48.658;2.328;2023-05-07T10:07:16;18.20;99.90
70550;DHT22;58101;48.658;2.328;2023-05-07T10:09:51;18.20;99.90
70550;DHT22;58101;48.658;2.328;2023-05-07T10:12:18;18.20;99.90
70550;DHT22;58101;48.658;2.328;2023-05-07T10:15:07;18.30;99.90
70550;DHT22;58101;48.658;2.328;2023-05-07T10:17:39;18.50;99.90
70550;DHT22;58101;48.658;2.328;2023-05-07T10:20:06;18.90;99.90
70550;DHT22;58101;48.658;2.328;2023-05-07T10:22:47;19.40;99.90
70550;DHT22;58101;48.658;2.328;2023-05-07T10:25:23;19.70;99.90
70550;DHT22;58101;48.658;2.328;2023-05-07T10:27:50;20.20;99.90
70550;DHT22;58101;48.658;2.328;2023-05-07T10:30:32;20.50;99.90
70550;DHT22;58101;48.658;2.328;2023-05-07T10:36:03;20.70;99.90
70550;DHT22;58101;48.658;2.328;2023-05-07T10:38:31;20.60;99.90
70550;DHT22;58101;48.658;2.328;2023-05-07T10:40:56;20.60;99.90
70550;DHT22;58101;48.658;2.328;2023-05-07T10:43:22;20.60;99.90
70550;DHT22;58101;48.658;2.328;2023-05-07T10:51:35;20.80;99.90
70550;DHT22;58101;48.658;2.328;2023-05-07T10:54:22;20.70;99.90
70550;DHT22;58101;48.658;2.328;2023-05-07T10:56:51;20.60;99.90
70550;DHT22;58101;48.658;2.328;2023-05-07T11:02:00;20.30;99.90
70550;DHT22;58101;48.658;2.328;2023-05-07T11:04:28;20.30;99.90
70550;DHT22;58101;48.658;2.328;2023-05-07T11:07:29;20.50;99.90
70550;DHT22;58101;48.658;2.328;2023-05-07T11:09:56;20.90;99.90
70550;DHT22;58101;48.658;2.328;2023-05-07T11:15:05;21.30;99.90
70550;DHT22;58101;48.658;2.328;2023-05-07T11:17:32;21.80;99.90
70550;DHT22;58101;48.658;2.328;2023-05-07T11:20:00;22.30;99.90
70550;DHT22;58101;48.658;2.328;2023-05-07T11:25:05;22.60;99.90
70550;DHT22;58101;48.658;2.328;2023-05-07T11:27:32;22.70;99.90
70550;DHT22;58101;48.658;2.328;2023-05-07T11:29:58;22.80;99.90
70550;DHT22;58101;48.658;2.328;2023-05-07T11:32:31;22.70;99.90
70550;DHT22;58101;48.658;2.328;2023-05-07T11:35:01;22.60;99.90
70550;DHT22;58101;48.658;2.328;2023-05-07T11:37:28;22.40;99.90
70550;DHT22;58101;48.658;2.328;2023-05-07T11:40:05;22.50;99.90
70550;DHT22;58101;48.658;2.328;2023-05-07T11:42:39;22.40;99.90
70550;DHT22;58101;48.658;2.328;2023-05-07T11:45:07;22.50;99.90
70550;DHT22;58101;48.658;2.328;2023-05-07T11:47:33;22.70;99.90
70550;DHT22;58101;48.658;2.328;2023-05-07T11:50:05;22.70;99.90
70550;DHT22;58101;48.658;2.328;2023-05-07T11:53:08;22.50;99.90
70550;DHT22;58101;48.658;2.328;2023-05-07T11:55:37;22.30;99.90
70550;DHT22;58101;48.658;2.328;2023-05-07T11:58:03;22.10;99.90
70550;DHT22;58101;48.658;2.328;2023-05-07T12:00:29;21.80;99.90
70550;DHT22;58101;48.658;2.328;2023-05-07T12:02:55;21.40;99.90
70550;DHT22;58101;48.658;2.328;2023-05-07T12:05:22;21.00;99.90
70550;DHT22;58101;48.658;2.328;2023-05-07T12:07:47;20.70;99.90
70550;DHT22;58101;48.658;2.328;2023-05-07T12:40:15;19.40;99.90
70550;DHT22;58101;48.658;2.328;2023-05-07T12:42:44;19.20;99.90
70550;DHT22;58101;48.658;2.328;2023-05-07T12:45:19;19.20;99.90
70550;DHT22;58101;48.658;2.328;2023-05-07T12:47:48;19.10;99.90
70550;DHT22;58101;48.658;2.328;2023-05-07T12:50:14;19.00;99.90
70550;DHT22;58101;48.658;2.328;2023-05-07T12:52:40;18.80;99.90
70550;DHT22;58101;48.658;2.328;2023-05-07T12:55:07;18.60;99.90
70550;DHT22;58101;48.658;2.328;2023-05-07T15:39:16;21.30;99.90
70550;DHT22;58101;48.658;2.328;2023-05-07T15:41:44;21.20;99.90
70550;DHT22;58101;48.658;2.328;2023-05-07T19:01:43;17.50;99.90
70550;DHT22;58101;48.658;2.328;2023-05-07T19:04:28;17.50;99.90
70550;DHT22;58101;48.658;2.328;2023-05-07T19:07:09;17.40;99.90
70550;DHT22;58101;48.658;2.328;2023-05-07T19:09:35;17.40;99.90
70550;DHT22;58101;48.658;2.328;2023-05-07T19:12:06;17.30;99.90
70550;DHT22;58101;48.658;2.328;2023-05-07T19:17:01;17.30;99.90
70550;DHT22;58101;48.658;2.328;2023-05-07T19:19:29;17.20;99.90
70550;DHT22;58101;48.658;2.328;2023-05-07T19:22:06;17.20;99.90
70550;DHT22;58101;48.658;2.328;2023-05-07T19:30:09;17.00;99.90
70550;DHT22;58101;48.658;2.328;2023-05-07T19:38:12;16.80;99.90
70550;DHT22;58101;48.658;2.328;2023-05-07T19:40:43;16.70;99.90
70550;DHT22;58101;48.658;2.328;2023-05-07T19:43:12;16.70;99.90
70550;DHT22;58101;48.658;2.328;2023-05-07T19:50:56;16.60;99.90
70550;DHT22;58101;48.658;2.328;2023-05-07T19:53:30;16.60;99.90
70550;DHT22;58101;48.658;2.328;2023-05-07T19:59:16;16.50;99.90
70550;DHT22;58101;48.658;2.328;2023-05-07T20:05:01;16.30;99.90
70550;DHT22;58101;48.658;2.328;2023-05-07T20:11:00;16.30;99.90
70550;DHT22;58101;48.658;2.328;2023-05-07T20:13:31;16.20;99.90
70550;DHT22;58101;48.658;2.328;2023-05-07T20:18:55;16.10;99.90
70550;DHT22;58101;48.658;2.328;2023-05-07T20:21:52;16.10;99.90
70550;DHT22;58101;48.658;2.328;2023-05-07T20:27:56;16.00;99.90
70550;DHT22;58101;48.658;2.328;2023-05-07T20:30:30;15.90;99.90
70550;DHT22;58101;48.658;2.328;2023-05-07T20:33:21;15.90;99.90
70550;DHT22;58101;48.658;2.328;2023-05-07T20:35:47;15.90;99.90
70550;DHT22;58101;48.658;2.328;2023-05-07T20:38:13;15.90;99.90
70550;DHT22;58101;48.658;2.328;2023-05-07T20:40:48;15.80;99.90
70550;DHT22;58101;48.658;2.328;2023-05-07T20:43:24;15.70;99.90
70550;DHT22;58101;48.658;2.328;2023-05-07T20:46:21;15.70;99.90
70550;DHT22;58101;48.658;2.328;2023-05-07T20:49:05;15.70;99.90
70550;DHT22;58101;48.658;2.328;2023-05-07T20:51:42;15.60;99.90
70550;DHT22;58101;48.658;2.328;2023-05-07T20:57:34;15.50;99.90
70550;DHT22;58101;48.658;2.328;2023-05-07T21:00:14;15.50;99.90
70550;DHT22;58101;48.658;2.328;2023-05-07T21:02:57;15.50;99.90
70550;DHT22;58101;48.658;2.328;2023-05-07T21:05:25;15.50;99.90
70550;DHT22;58101;48.658;2.328;2023-05-07T21:08:11;15.50;99.90
70550;DHT22;58101;48.658;2.328;2023-05-07T21:10:43;15.40;99.90
70550;DHT22;58101;48.658;2.328;2023-05-07T21:13:15;15.40;99.90
70550;DHT22;58101;48.658;2.328;2023-05-07T21:15:41;15.30;99.90
70550;DHT22;58101;48.658;2.328;2023-05-07T21:18:10;15.30;99.90
70550;DHT22;58101;48.658;2.328;2023-05-07T21:20:40;15.30;99.90
70550;DHT22;58101;48.658;2.328;2023-05-07T21:23:08;15.30;99.90
70550;DHT22;58101;48.658;2.328;2023-05-07T21:25:37;15.20;99.90
70550;DHT22;58101;48.658;2.328;2023-05-07T21:28:07;15.20;99.90
70550;DHT22;58101;48.658;2.328;2023-05-07T21:30:33;15.20;99.90
70550;DHT22;58101;48.658;2.328;2023-05-07T21:32:59;15.30;99.90
70550;DHT22;58101;48.658;2.328;2023-05-07T21:35:24;15.20;99.90
70550;DHT22;58101;48.658;2.328;2023-05-07T21:37:50;15.20;99.90
70550;DHT22;58101;48.658;2.328;2023-05-07T21:40:16;15.20;99.90
70550;DHT22;58101;48.658;2.328;2023-05-07T21:42:44;15.20;99.90
70550;DHT22;58101;48.658;2.328;2023-05-07T21:45:11;15.20;99.90
70550;DHT22;58101;48.658;2.328;2023-05-07T21:47:36;15.20;99.90
70550;DHT22;58101;48.658;2.328;2023-05-07T21:50:02;15.20;99.90
70550;DHT22;58101;48.658;2.328;2023-05-07T21:52:28;15.20;99.90
70550;DHT22;58101;48.658;2.328;2023-05-07T21:54:54;15.20;99.90
70550;DHT22;58101;48.658;2.328;2023-05-07T21:57:39;15.20;99.90
70550;DHT22;58101;48.658;2.328;2023-05-07T22:00:16;15.20;99.90
70550;DHT22;58101;48.658;2.328;2023-05-07T22:02:45;15.20;99.90
70550;DHT22;58101;48.658;2.328;2023-05-07T22:05:16;15.20;99.90
70550;DHT22;58101;48.658;2.328;2023-05-07T22:08:12;15.20;99.90
70550;DHT22;58101;48.658;2.328;2023-05-07T22:10:49;15.20;99.90
70550;DHT22;58101;48.658;2.328;2023-05-07T22:16:31;15.20;99.90
70550;DHT22;58101;48.658;2.328;2023-05-07T22:19:02;15.20;99.90
70550;DHT22;58101;48.658;2.328;2023-05-07T22:21:34;15.10;99.90
70550;DHT22;58101;48.658;2.328;2023-05-07T22:24:19;15.10;99.90
70550;DHT22;58101;48.658;2.328;2023-05-07T22:27:01;15.00;99.90
70550;DHT22;58101;48.658;2.328;2023-05-07T22:29:48;15.10;99.90
70550;DHT22;58101;48.658;2.328;2023-05-07T22:32:19;15.00;99.90
70550;DHT22;58101;48.658;2.328;2023-05-07T22:34:45;15.00;99.90
70550;DHT22;58101;48.658;2.328;2023-05-07T22:37:20;14.80;99.90
70550;DHT22;58101;48.658;2.328;2023-05-07T22:39:45;14.80;99.90
70550;DHT22;58101;48.658;2.328;2023-05-07T22:42:11;14.70;99.90
70550;DHT22;58101;48.658;2.328;2023-05-07T22:45:14;14.70;99.90
70550;DHT22;58101;48.658;2.328;2023-05-07T22:47:45;14.70;99.90
70550;DHT22;58101;48.658;2.328;2023-05-07T22:50:14;14.60;99.90
70550;DHT22;58101;48.658;2.328;2023-05-07T22:52:40;14.60;99.90
70550;DHT22;58101;48.658;2.328;2023-05-07T22:55:06;14.50;99.90
70550;DHT22;58101;48.658;2.328;2023-05-07T22:57:44;14.50;99.90
70550;DHT22;58101;48.658;2.328;2023-05-07T23:00:10;14.40;99.90
70550;DHT22;58101;48.658;2.328;2023-05-07T23:02:39;14.40;99.90
70550;DHT22;58101;48.658;2.328;2023-05-07T23:05:38;14.40;99.90
70550;DHT22;58101;48.658;2.328;2023-05-07T23:08:11;14.30;99.90
70550;DHT22;58101;48.658;2.328;2023-05-07T23:10:46;14.30;99.90
70550;DHT22;58101;48.658;2.328;2023-05-07T23:13:24;14.30;99.90
70550;DHT22;58101;48.658;2.328;2023-05-07T23:16:07;14.20;99.90
70550;DHT22;58101;48.658;2.328;2023-05-07T23:18:33;14.20;99.90
70550;DHT22;58101;48.658;2.328;2023-05-07T23:20:58;14.20;99.90
70550;DHT22;58101;48.658;2.328;2023-05-07T23:23:24;14.10;99.90
70550;DHT22;58101;48.658;2.328;2023-05-07T23:26:18;14.10;99.90
70550;DHT22;58101;48.658;2.328;2023-05-07T23:28:50;14.00;99.90
70550;DHT22;58101;48.658;2.328;2023-05-07T23:31:16;14.10;99.90
70550;DHT22;58101;48.658;2.328;2023-05-07T23:36:54;14.00;99.90
70550;DHT22;58101;48.658;2.328;2023-05-07T23:39:20;13.90;99.90
70550;DHT22;58101;48.658;2.328;2023-05-07T23:45:03;13.90;99.90
70550;DHT22;58101;48.658;2.328;2023-05-07T23:47:29;13.90;99.90
70550;DHT22;58101;48.658;2.328;2023-05-07T23:53:18;13.80;99.90
70550;DHT22;58101;48.658;2.328;2023-05-07T23:55:46;13.80;99.90
70550;DHT22;58101;48.658;2.328;2023-05-07T23:58:24;13.80;99.90
